Time,TemperatureF,DewpointF,PressureIn,WindDirection,WindDirectionDegrees,WindSpeedMPH,WindSpeedGustMPH,Humidity,HourlyPrecipIn,Conditions,Clouds,dailyrainin,SoftwareType,DateUTC
2013-09-23 00:01:00,53.4,39.9,29.86,North,0,12.1,12.1,60,0.00,,,0.00,meteobridge,2013-09-23 04:01:00,
2013-09-23 00:02:00,53.4,39.9,29.86,North,0,7.6,12.1,60,0.00,,,0.00,meteobridge,2013-09-23 04:02:00,
2013-09-23 00:03:00,53.4,39.9,29.87,North,0,9.2,9.8,60,0.00,,,0.00,meteobridge,2013-09-23 04:03:00,
2013-09-23 00:06:00,53.4,39.9,29.87,North,0,9.8,9.8,60,0.00,,,0.00,meteobridge,2013-09-23 04:06:00,
2013-09-23 00:12:00,53.1,39.9,29.87,NW,315,5.4,6.0,61,0.00,,,0.00,meteobridge,2013-09-23 04:12:00,
2013-09-23 00:18:00,53.2,40.1,29.87,North,0,4.5,6.9,61,0.00,,,0.00,meteobridge,2013-09-23 04:18:00,
2013-09-23 00:23:00,52.7,40.1,29.86,West,270,1.6,4.5,62,0.00,,,0.00,meteobridge,2013-09-23 04:23:00,
2013-09-23 00:29:00,53.1,39.9,29.87,NW,315,3.8,8.3,61,0.00,,,0.00,meteobridge,2013-09-23 04:29:00,
2013-09-23 00:35:00,52.7,40.1,29.87,NE,45,3.8,6.9,62,0.00,,,0.00,meteobridge,2013-09-23 04:35:00,
2013-09-23 00:40:00,52.9,39.7,29.87,North,0,5.4,10.7,61,0.00,,,0.00,meteobridge,2013-09-23 04:40:00,
2013-09-23 00:46:00,52.7,40.1,29.87,West,270,5.4,7.6,62,0.00,,,0.00,meteobridge,2013-09-23 04:46:00,
2013-09-23 00:51:00,52.7,40.1,29.87,North,0,3.1,6.0,62,0.00,,,0.00,meteobridge,2013-09-23 04:51:00,
2013-09-23 00:57:00,52.2,39.6,29.87,North,0,5.4,6.9,62,0.00,,,0.00,meteobridge,2013-09-23 04:57:00,
2013-09-23 01:03:00,52.0,39.4,29.87,NW,315,3.8,5.4,62,0.00,,,0.00,meteobridge,2013-09-23 05:03:00,
2013-09-23 01:08:00,51.6,39.4,29.87,South,180,4.5,6.9,63,0.00,,,0.00,meteobridge,2013-09-23 05:08:00,
2013-09-23 01:14:00,51.8,39.2,29.87,NW,315,6.9,8.3,62,0.00,,,0.00,meteobridge,2013-09-23 05:14:00,
2013-09-23 01:20:00,51.6,39.4,29.87,NW,315,7.6,7.6,63,0.00,,,0.00,meteobridge,2013-09-23 05:20:00,
2013-09-23 01:25:00,51.3,39.6,29.87,NW,315,9.2,9.2,64,0.00,,,0.00,meteobridge,2013-09-23 05:25:00,
2013-09-23 01:31:00,51.3,39.6,29.87,South,180,4.5,6.9,64,0.00,,,0.00,meteobridge,2013-09-23 05:31:00,
2013-09-23 01:37:00,51.3,39.6,29.88,NW,315,7.6,7.6,64,0.00,,,0.00,meteobridge,2013-09-23 05:37:00,
2013-09-23 01:42:00,51.3,39.6,29.87,North,0,4.5,8.3,64,0.00,,,0.00,meteobridge,2013-09-23 05:42:00,
2013-09-23 01:48:00,50.9,39.2,29.87,North,0,4.5,4.5,64,0.00,,,0.00,meteobridge,2013-09-23 05:48:00,
2013-09-23 01:53:00,50.5,38.8,29.87,West,270,11.4,11.4,64,0.00,,,0.00,meteobridge,2013-09-23 05:53:00,
2013-09-23 01:59:00,50.5,38.8,29.87,North,0,7.6,7.6,64,0.00,,,0.00,meteobridge,2013-09-23 05:59:00,
2013-09-23 02:05:00,50.7,39.0,29.88,South,180,6.9,7.6,64,0.00,,,0.00,meteobridge,2013-09-23 06:05:00,
2013-09-23 02:10:00,50.5,38.8,29.88,North,0,8.3,8.3,64,0.00,,,0.00,meteobridge,2013-09-23 06:10:00,
2013-09-23 02:16:00,50.4,38.7,29.88,North,0,6.0,7.6,64,0.00,,,0.00,meteobridge,2013-09-23 06:16:00,
2013-09-23 02:22:00,50.2,38.5,29.88,North,0,4.5,8.3,64,0.00,,,0.00,meteobridge,2013-09-23 06:22:00,
2013-09-23 02:27:00,50.0,38.3,29.88,NW,315,6.0,8.3,64,0.00,,,0.00,meteobridge,2013-09-23 06:27:00,
2013-09-23 02:33:00,49.8,38.5,29.88,NW,315,3.8,6.9,65,0.00,,,0.00,meteobridge,2013-09-23 06:33:00,
2013-09-23 02:39:00,49.6,38.3,29.88,NW,315,5.4,6.9,65,0.00,,,0.00,meteobridge,2013-09-23 06:39:00,
2013-09-23 02:44:00,49.5,38.1,29.88,NW,315,3.8,6.0,65,0.00,,,0.00,meteobridge,2013-09-23 06:44:00,
2013-09-23 02:50:00,49.3,38.5,29.88,West,270,4.5,9.8,66,0.00,,,0.00,meteobridge,2013-09-23 06:50:00,
2013-09-23 02:55:00,48.7,37.9,29.88,North,0,0.0,2.2,66,0.00,,,0.00,meteobridge,2013-09-23 06:55:00,
2013-09-23 03:01:00,48.2,37.4,29.88,North,0,1.6,3.1,66,0.00,,,0.00,meteobridge,2013-09-23 07:01:00,
2013-09-23 03:07:00,48.2,37.4,29.89,West,270,2.2,3.1,66,0.00,,,0.00,meteobridge,2013-09-23 07:07:00,
2013-09-23 03:12:00,48.0,37.6,29.88,North,0,3.8,3.8,67,0.00,,,0.00,meteobridge,2013-09-23 07:12:00,
2013-09-23 03:18:00,47.8,37.4,29.88,North,0,3.8,3.8,67,0.00,,,0.00,meteobridge,2013-09-23 07:18:00,
2013-09-23 03:24:00,48.0,37.6,29.89,North,0,7.6,7.6,67,0.00,,,0.00,meteobridge,2013-09-23 07:24:00,
2013-09-23 03:29:00,48.2,37.4,29.89,West,270,6.9,8.3,66,0.00,,,0.00,meteobridge,2013-09-23 07:29:00,
2013-09-23 03:35:00,48.0,37.6,29.89,NW,315,4.5,6.9,67,0.00,,,0.00,meteobridge,2013-09-23 07:35:00,
2013-09-23 03:41:00,47.7,37.2,29.89,North,0,3.8,4.5,67,0.00,,,0.00,meteobridge,2013-09-23 07:41:00,
2013-09-23 03:46:00,47.7,37.2,29.89,West,270,3.1,5.4,67,0.00,,,0.00,meteobridge,2013-09-23 07:46:00,
2013-09-23 03:52:00,47.8,37.4,29.90,West,270,3.1,6.9,67,0.00,,,0.00,meteobridge,2013-09-23 07:52:00,
2013-09-23 03:58:00,47.3,36.9,29.89,NW,315,4.5,5.4,67,0.00,,,0.00,meteobridge,2013-09-23 07:58:00,
2013-09-23 04:03:00,46.9,36.9,29.90,West,270,2.2,3.8,68,0.00,,,0.00,meteobridge,2013-09-23 08:03:00,
2013-09-23 04:09:00,46.9,36.9,29.90,West,270,2.2,2.2,68,0.00,,,0.00,meteobridge,2013-09-23 08:09:00,
2013-09-23 04:14:00,46.0,36.1,29.90,East,90,2.2,2.2,68,0.00,,,0.00,meteobridge,2013-09-23 08:14:00,
2013-09-23 04:20:00,45.7,36.1,29.90,East,90,0.7,0.7,69,0.00,,,0.00,meteobridge,2013-09-23 08:20:00,
2013-09-23 04:26:00,45.7,36.1,29.90,North,0,0.0,1.6,69,0.00,,,0.00,meteobridge,2013-09-23 08:26:00,
2013-09-23 04:31:00,45.5,36.0,29.90,North,0,0.0,0.7,69,0.00,,,0.00,meteobridge,2013-09-23 08:31:00,
2013-09-23 04:37:00,45.0,35.8,29.90,North,0,0.0,0.0,70,0.00,,,0.00,meteobridge,2013-09-23 08:37:00,
2013-09-23 04:43:00,44.6,35.4,29.90,West,270,0.0,1.6,70,0.00,,,0.00,meteobridge,2013-09-23 08:43:00,
2013-09-23 04:48:00,44.4,36.0,29.90,West,270,3.1,3.1,72,0.00,,,0.00,meteobridge,2013-09-23 08:48:00,
2013-09-23 04:54:00,44.6,35.8,29.90,NW,315,2.2,2.2,71,0.00,,,0.00,meteobridge,2013-09-23 08:54:00,
2013-09-23 05:00:00,45.5,36.7,29.90,North,0,3.8,4.5,71,0.00,,,0.00,meteobridge,2013-09-23 09:00:00,
2013-09-23 05:05:00,45.5,36.3,29.90,East,90,0.7,2.2,70,0.00,,,0.00,meteobridge,2013-09-23 09:05:00,
2013-09-23 05:11:00,44.2,35.4,29.91,East,90,0.0,0.0,71,0.00,,,0.00,meteobridge,2013-09-23 09:11:00,
2013-09-23 05:16:00,43.9,35.4,29.91,East,90,0.0,0.0,72,0.00,,,0.00,meteobridge,2013-09-23 09:16:00,
2013-09-23 05:22:00,43.5,35.1,29.91,East,90,0.0,0.0,72,0.00,,,0.00,meteobridge,2013-09-23 09:22:00,
2013-09-23 05:28:00,43.0,34.5,29.91,East,90,0.0,0.0,72,0.00,,,0.00,meteobridge,2013-09-23 09:28:00,
2013-09-23 05:33:00,43.3,35.2,29.91,West,270,0.0,0.0,73,0.00,,,0.00,meteobridge,2013-09-23 09:33:00,
2013-09-23 05:39:00,43.2,35.1,29.91,South,180,0.0,0.0,73,0.00,,,0.00,meteobridge,2013-09-23 09:39:00,
2013-09-23 05:45:00,42.8,34.7,29.92,South,180,0.0,0.0,73,0.00,,,0.00,meteobridge,2013-09-23 09:45:00,
2013-09-23 05:50:00,42.3,34.9,29.91,South,180,0.0,0.0,75,0.00,,,0.00,meteobridge,2013-09-23 09:50:00,
2013-09-23 05:56:00,41.7,34.3,29.91,East,90,1.6,1.6,75,0.00,,,0.00,meteobridge,2013-09-23 09:56:00,
2013-09-23 06:02:00,42.1,34.7,29.92,East,90,0.0,0.0,75,0.00,,,0.00,meteobridge,2013-09-23 10:02:00,
2013-09-23 06:07:00,42.1,34.7,29.92,East,90,0.0,0.0,75,0.00,,,0.00,meteobridge,2013-09-23 10:07:00,
2013-09-23 06:13:00,42.3,35.2,29.92,East,90,0.0,0.0,76,0.00,,,0.00,meteobridge,2013-09-23 10:13:00,
2013-09-23 06:18:00,42.3,35.2,29.92,West,270,0.0,0.7,76,0.00,,,0.00,meteobridge,2013-09-23 10:18:00,
2013-09-23 06:24:00,42.6,35.6,29.92,East,90,0.0,0.0,76,0.00,,,0.00,meteobridge,2013-09-23 10:24:00,
2013-09-23 06:30:00,41.7,34.7,29.93,East,90,0.0,0.0,76,0.00,,,0.00,meteobridge,2013-09-23 10:30:00,
2013-09-23 06:35:00,41.9,34.9,29.93,West,270,1.6,1.6,76,0.00,,,0.00,meteobridge,2013-09-23 10:35:00,
2013-09-23 06:41:00,41.4,34.3,29.93,West,270,0.0,0.0,76,0.00,,,0.00,meteobridge,2013-09-23 10:41:00,
2013-09-23 06:47:00,41.7,34.7,29.94,West,270,0.0,0.0,76,0.00,,,0.00,meteobridge,2013-09-23 10:47:00,
2013-09-23 06:52:00,42.1,35.4,29.93,West,270,0.0,0.0,77,0.00,,,0.00,meteobridge,2013-09-23 10:52:00,
2013-09-23 06:58:00,41.2,34.5,29.93,West,270,0.0,0.0,77,0.00,,,0.00,meteobridge,2013-09-23 10:58:00,
2013-09-23 07:06:00,41.2,34.5,29.94,North,0,0.0,0.0,77,0.00,,,0.00,meteobridge,2013-09-23 11:06:00,
2013-09-23 07:21:00,43.7,36.3,29.93,North,0,1.6,1.6,75,0.00,,,0.00,meteobridge,2013-09-23 11:21:00,
2013-09-23 07:37:00,43.2,35.4,29.94,North,0,1.6,2.2,74,0.00,,,0.00,meteobridge,2013-09-23 11:37:00,
2013-09-23 07:43:00,44.2,36.5,29.94,West,270,3.1,3.1,74,0.00,,,0.00,meteobridge,2013-09-23 11:43:00,
2013-09-23 07:49:00,44.8,36.3,29.94,North,0,1.6,3.8,72,0.00,,,0.00,meteobridge,2013-09-23 11:49:00,
2013-09-23 07:54:00,45.5,37.0,29.94,West,270,3.8,3.8,72,0.00,,,0.00,meteobridge,2013-09-23 11:54:00,
2013-09-23 08:00:00,46.0,37.2,29.94,North,0,3.8,5.4,71,0.00,,,0.00,meteobridge,2013-09-23 12:00:00,
2013-09-23 08:06:00,46.2,37.4,29.94,North,0,4.5,4.5,71,0.00,,,0.00,meteobridge,2013-09-23 12:06:00,
2013-09-23 08:11:00,46.2,37.4,29.94,North,0,2.2,3.8,71,0.00,,,0.00,meteobridge,2013-09-23 12:11:00,
2013-09-23 08:17:00,46.8,37.6,29.94,North,0,9.8,9.8,70,0.00,,,0.00,meteobridge,2013-09-23 12:17:00,
2013-09-23 08:23:00,47.1,37.4,29.93,West,270,7.6,7.6,69,0.00,,,0.00,meteobridge,2013-09-23 12:23:00,
2013-09-23 08:28:00,47.8,38.1,29.93,North,0,4.5,9.8,69,0.00,,,0.00,meteobridge,2013-09-23 12:28:00,
2013-09-23 08:34:00,48.0,37.9,29.94,NW,315,4.5,7.6,68,0.00,,,0.00,meteobridge,2013-09-23 12:34:00,
2013-09-23 08:39:00,48.6,38.1,29.94,North,0,5.4,6.9,67,0.00,,,0.00,meteobridge,2013-09-23 12:39:00,
2013-09-23 08:45:00,48.7,38.3,29.94,East,90,7.6,8.3,67,0.00,,,0.00,meteobridge,2013-09-23 12:45:00,
2013-09-23 08:51:00,49.3,38.5,29.94,NW,315,3.8,13.0,66,0.00,,,0.00,meteobridge,2013-09-23 12:51:00,
2013-09-23 08:56:00,49.6,38.7,29.94,NW,315,12.1,12.1,66,0.00,,,0.00,meteobridge,2013-09-23 12:56:00,
2013-09-23 09:02:00,49.8,38.8,29.94,West,270,8.3,8.3,66,0.00,,,0.00,meteobridge,2013-09-23 13:02:00,
2013-09-23 09:08:00,50.2,38.5,29.94,North,0,6.0,11.4,64,0.00,,,0.00,meteobridge,2013-09-23 13:08:00,
2013-09-23 09:13:00,50.5,38.8,29.94,North,0,7.6,7.6,64,0.00,,,0.00,meteobridge,2013-09-23 13:13:00,
2013-09-23 09:19:00,50.5,38.8,29.94,SW,225,11.4,11.4,64,0.00,,,0.00,meteobridge,2013-09-23 13:19:00,
2013-09-23 09:25:00,50.7,39.0,29.94,NW,315,9.2,9.2,64,0.00,,,0.00,meteobridge,2013-09-23 13:25:00,
2013-09-23 09:30:00,50.7,38.7,29.94,North,0,6.9,9.8,63,0.00,,,0.00,meteobridge,2013-09-23 13:30:00,
2013-09-23 09:36:00,51.3,39.6,29.94,NW,315,10.7,10.7,64,0.00,,,0.00,meteobridge,2013-09-23 13:36:00,
2013-09-23 09:41:00,51.4,39.2,29.94,North,0,10.7,10.7,63,0.00,,,0.00,meteobridge,2013-09-23 13:41:00,
2013-09-23 09:47:00,51.8,39.2,29.94,North,0,9.2,9.2,62,0.00,,,0.00,meteobridge,2013-09-23 13:47:00,
2013-09-23 09:53:00,52.3,39.7,29.94,West,270,3.8,9.2,62,0.00,,,0.00,meteobridge,2013-09-23 13:53:00,
2013-09-23 09:58:00,53.2,40.6,29.94,West,270,6.0,8.3,62,0.00,,,0.00,meteobridge,2013-09-23 13:58:00,
2013-09-23 10:04:00,53.1,39.2,29.94,North,0,9.2,15.9,59,0.00,,,0.00,meteobridge,2013-09-23 14:04:00,
2013-09-23 10:10:00,53.8,39.4,29.94,South,180,7.6,15.2,58,0.00,,,0.00,meteobridge,2013-09-23 14:10:00,
2013-09-23 10:15:00,54.0,38.1,29.94,North,0,10.7,10.7,55,0.00,,,0.00,meteobridge,2013-09-23 14:15:00,
2013-09-23 10:21:00,54.0,37.8,29.94,NW,315,12.1,12.1,54,0.00,,,0.00,meteobridge,2013-09-23 14:21:00,
2013-09-23 10:27:00,55.6,39.7,29.94,North,0,4.5,8.3,55,0.00,,,0.00,meteobridge,2013-09-23 14:27:00,
2013-09-23 10:32:00,54.9,38.1,29.94,West,270,7.6,11.4,53,0.00,,,0.00,meteobridge,2013-09-23 14:32:00,
2013-09-23 10:38:00,55.8,39.9,29.94,NW,315,12.1,12.1,55,0.00,,,0.00,meteobridge,2013-09-23 14:38:00,
2013-09-23 10:44:00,55.2,37.9,29.94,West,270,7.6,15.9,52,0.00,,,0.00,meteobridge,2013-09-23 14:44:00,
2013-09-23 10:49:00,56.3,39.4,29.94,NW,315,7.6,7.6,53,0.00,,,0.00,meteobridge,2013-09-23 14:49:00,
2013-09-23 10:54:00,55.4,37.6,29.93,NW,315,6.9,15.2,51,0.00,,,0.00,meteobridge,2013-09-23 14:54:00,
2013-09-23 11:00:00,56.5,38.1,29.94,North,0,10.7,19.7,50,0.00,,,0.00,meteobridge,2013-09-23 15:00:00,
2013-09-23 11:05:00,56.5,38.1,29.93,West,270,12.1,14.5,50,0.00,,,0.00,meteobridge,2013-09-23 15:05:00,
2013-09-23 11:11:00,56.1,37.8,29.94,North,0,13.6,13.6,50,0.00,,,0.00,meteobridge,2013-09-23 15:11:00,
2013-09-23 11:17:00,57.0,39.0,29.94,North,0,6.0,14.5,51,0.00,,,0.00,meteobridge,2013-09-23 15:17:00,
2013-09-23 11:22:00,56.1,37.8,29.93,North,0,13.0,13.0,50,0.00,,,0.00,meteobridge,2013-09-23 15:22:00,
2013-09-23 11:28:00,57.6,39.0,29.94,North,0,8.3,11.4,50,0.00,,,0.00,meteobridge,2013-09-23 15:28:00,
2013-09-23 11:34:00,58.6,39.6,29.94,North,0,17.4,17.4,49,0.00,,,0.00,meteobridge,2013-09-23 15:34:00,
2013-09-23 11:39:00,57.9,38.8,29.94,East,90,9.2,9.2,49,0.00,,,0.00,meteobridge,2013-09-23 15:39:00,
2013-09-23 11:45:00,57.6,38.5,29.93,North,0,18.3,20.6,49,0.00,,,0.00,meteobridge,2013-09-23 15:45:00,
2013-09-23 11:50:00,56.7,38.3,29.94,North,0,17.4,20.6,50,0.00,,,0.00,meteobridge,2013-09-23 15:50:00,
2013-09-23 11:56:00,56.8,38.5,29.94,West,270,14.5,14.5,50,0.00,,,0.00,meteobridge,2013-09-23 15:56:00,
2013-09-23 12:02:00,58.5,39.9,29.95,North,0,13.0,13.0,50,0.00,,,0.00,meteobridge,2013-09-23 16:02:00,
2013-09-23 12:07:00,56.8,38.5,29.95,NW,315,10.7,15.2,50,0.00,,,0.00,meteobridge,2013-09-23 16:07:00,
2013-09-23 12:13:00,57.7,39.2,29.94,NE,45,15.2,17.4,50,0.00,,,0.00,meteobridge,2013-09-23 16:13:00,
2013-09-23 12:19:00,57.9,38.3,29.94,NW,315,10.7,16.8,48,0.00,,,0.00,meteobridge,2013-09-23 16:19:00,
2013-09-23 12:24:00,56.3,36.9,29.94,North,0,10.7,17.4,48,0.00,,,0.00,meteobridge,2013-09-23 16:24:00,
2013-09-23 12:30:00,58.5,39.4,29.93,NW,315,11.4,11.4,49,0.00,,,0.00,meteobridge,2013-09-23 16:30:00,
2013-09-23 12:36:00,59.4,39.7,29.94,North,0,13.0,13.6,48,0.00,,,0.00,meteobridge,2013-09-23 16:36:00,
2013-09-23 12:41:00,58.1,38.5,29.93,NE,45,14.5,15.2,48,0.00,,,0.00,meteobridge,2013-09-23 16:41:00,
2013-09-23 12:47:00,57.9,38.8,29.93,North,0,10.7,14.5,49,0.00,,,0.00,meteobridge,2013-09-23 16:47:00,
2013-09-23 12:53:00,59.9,40.6,29.94,North,0,15.9,15.9,49,0.00,,,0.00,meteobridge,2013-09-23 16:53:00,
2013-09-23 12:58:00,58.8,40.3,29.94,North,0,13.6,13.6,50,0.00,,,0.00,meteobridge,2013-09-23 16:58:00,
2013-09-23 13:04:00,59.7,40.5,29.94,SE,135,8.3,14.5,49,0.00,,,0.00,meteobridge,2013-09-23 17:04:00,
2013-09-23 13:09:00,60.8,39.9,29.93,West,270,9.2,13.0,46,0.00,,,0.00,meteobridge,2013-09-23 17:09:00,
2013-09-23 13:15:00,57.9,38.3,29.93,North,0,9.2,19.0,48,0.00,,,0.00,meteobridge,2013-09-23 17:15:00,
2013-09-23 13:21:00,61.2,42.4,29.93,West,270,9.2,9.2,50,0.00,,,0.00,meteobridge,2013-09-23 17:21:00,
2013-09-23 13:26:00,60.8,42.1,29.93,West,270,9.2,12.1,50,0.00,,,0.00,meteobridge,2013-09-23 17:26:00,
2013-09-23 13:32:00,60.3,40.5,29.93,West,270,17.4,17.4,48,0.00,,,0.00,meteobridge,2013-09-23 17:32:00,
2013-09-23 13:38:00,60.6,41.4,29.92,West,270,9.8,9.8,49,0.00,,,0.00,meteobridge,2013-09-23 17:38:00,
2013-09-23 13:43:00,59.5,39.9,29.93,North,0,13.0,16.8,48,0.00,,,0.00,meteobridge,2013-09-23 17:43:00,
2013-09-23 13:49:00,60.4,41.2,29.93,North,0,11.4,11.4,49,0.00,,,0.00,meteobridge,2013-09-23 17:49:00,
2013-09-23 13:55:00,60.6,40.3,29.92,NE,45,9.8,10.7,47,0.00,,,0.00,meteobridge,2013-09-23 17:55:00,
2013-09-23 14:00:00,61.3,41.0,29.93,North,0,13.6,13.6,47,0.00,,,0.00,meteobridge,2013-09-23 18:00:00,
2013-09-23 14:06:00,60.1,40.8,29.92,North,0,9.2,9.8,49,0.00,,,0.00,meteobridge,2013-09-23 18:06:00,
2013-09-23 14:11:00,60.6,40.8,29.92,NW,315,19.0,19.0,48,0.00,,,0.00,meteobridge,2013-09-23 18:11:00,
2013-09-23 14:17:00,61.7,41.9,29.92,NW,315,8.3,8.3,48,0.00,,,0.00,meteobridge,2013-09-23 18:17:00,
2013-09-23 14:23:00,60.6,41.4,29.92,East,90,14.5,14.5,49,0.00,,,0.00,meteobridge,2013-09-23 18:23:00,
2013-09-23 14:28:00,60.8,41.0,29.93,West,270,12.1,13.0,48,0.00,,,0.00,meteobridge,2013-09-23 18:28:00,
2013-09-23 14:34:00,60.4,41.7,29.93,South,180,9.2,9.2,50,0.00,,,0.00,meteobridge,2013-09-23 18:34:00,
2013-09-23 14:40:00,62.2,43.3,29.92,North,0,9.8,12.1,50,0.00,,,0.00,meteobridge,2013-09-23 18:40:00,
2013-09-23 14:45:00,61.0,41.2,29.93,NW,315,9.2,11.4,48,0.00,,,0.00,meteobridge,2013-09-23 18:45:00,
2013-09-23 14:51:00,61.3,41.5,29.92,NW,315,11.4,13.0,48,0.00,,,0.00,meteobridge,2013-09-23 18:51:00,
2013-09-23 14:57:00,61.2,41.9,29.92,North,0,16.8,16.8,49,0.00,,,0.00,meteobridge,2013-09-23 18:57:00,
2013-09-23 15:02:00,60.1,40.8,29.92,NW,315,18.3,18.3,49,0.00,,,0.00,meteobridge,2013-09-23 19:02:00,
2013-09-23 15:08:00,60.8,41.5,29.92,North,0,13.0,13.0,49,0.00,,,0.00,meteobridge,2013-09-23 19:08:00,
2013-09-23 15:13:00,61.5,42.6,29.92,South,180,9.2,10.7,50,0.00,,,0.00,meteobridge,2013-09-23 19:13:00,
2013-09-23 15:19:00,61.3,42.6,29.92,NW,315,9.2,12.1,50,0.00,,,0.00,meteobridge,2013-09-23 19:19:00,
2013-09-23 15:25:00,61.2,43.0,29.92,West,270,5.4,13.0,51,0.00,,,0.00,meteobridge,2013-09-23 19:25:00,
2013-09-23 15:30:00,62.8,43.3,29.92,NW,315,8.3,8.3,49,0.00,,,0.00,meteobridge,2013-09-23 19:30:00,
2013-09-23 15:36:00,61.2,41.9,29.92,West,270,9.2,13.0,49,0.00,,,0.00,meteobridge,2013-09-23 19:36:00,
2013-09-23 15:42:00,61.2,41.9,29.92,West,270,9.2,12.1,49,0.00,,,0.00,meteobridge,2013-09-23 19:42:00,
2013-09-23 15:47:00,61.9,42.4,29.92,North,0,12.1,12.1,49,0.00,,,0.00,meteobridge,2013-09-23 19:47:00,
2013-09-23 15:53:00,61.2,42.4,29.92,North,0,16.8,16.8,50,0.00,,,0.00,meteobridge,2013-09-23 19:53:00,
2013-09-23 15:59:00,61.3,43.0,29.91,North,0,11.4,11.4,51,0.00,,,0.00,meteobridge,2013-09-23 19:59:00,
2013-09-23 16:04:00,61.2,42.4,29.91,NW,315,12.1,12.1,50,0.00,,,0.00,meteobridge,2013-09-23 20:04:00,
2013-09-23 16:10:00,61.3,42.6,29.92,South,180,12.1,12.1,50,0.00,,,0.00,meteobridge,2013-09-23 20:10:00,
2013-09-23 16:16:00,61.0,42.3,29.91,NW,315,9.8,11.4,50,0.00,,,0.00,meteobridge,2013-09-23 20:16:00,
2013-09-23 16:21:00,62.4,44.1,29.92,NW,315,9.2,9.2,51,0.00,,,0.00,meteobridge,2013-09-23 20:21:00,
2013-09-23 16:27:00,61.0,42.3,29.92,NW,315,5.4,9.8,50,0.00,,,0.00,meteobridge,2013-09-23 20:27:00,
2013-09-23 16:32:00,61.2,42.4,29.92,NW,315,9.2,14.5,50,0.00,,,0.00,meteobridge,2013-09-23 20:32:00,
2013-09-23 16:38:00,61.5,43.2,29.92,North,0,5.4,11.4,51,0.00,,,0.00,meteobridge,2013-09-23 20:38:00,
2013-09-23 16:44:00,61.5,43.2,29.92,North,0,7.6,8.3,51,0.00,,,0.00,meteobridge,2013-09-23 20:44:00,
2013-09-23 16:49:00,60.8,42.6,29.92,North,0,8.3,14.5,51,0.00,,,0.00,meteobridge,2013-09-23 20:49:00,
2013-09-23 16:55:00,61.0,42.3,29.92,NW,315,14.5,14.5,50,0.00,,,0.00,meteobridge,2013-09-23 20:55:00,
2013-09-23 17:01:00,61.7,43.3,29.92,NW,315,9.8,9.8,51,0.00,,,0.00,meteobridge,2013-09-23 21:01:00,
2013-09-23 17:06:00,61.0,43.2,29.93,South,180,11.4,11.4,52,0.00,,,0.00,meteobridge,2013-09-23 21:06:00,
2013-09-23 17:12:00,61.0,42.8,29.93,North,0,12.1,12.1,51,0.00,,,0.00,meteobridge,2013-09-23 21:12:00,
2013-09-23 17:18:00,61.0,43.2,29.93,North,0,11.4,13.0,52,0.00,,,0.00,meteobridge,2013-09-23 21:18:00,
2013-09-23 17:23:00,60.3,43.0,29.93,North,0,11.4,11.4,53,0.00,,,0.00,meteobridge,2013-09-23 21:23:00,
2013-09-23 17:29:00,60.3,43.0,29.93,West,270,4.5,9.2,53,0.00,,,0.00,meteobridge,2013-09-23 21:29:00,
2013-09-23 17:34:00,60.3,43.0,29.94,North,0,13.0,13.0,53,0.00,,,0.00,meteobridge,2013-09-23 21:34:00,
2013-09-23 17:40:00,59.7,42.1,29.93,SE,135,8.3,13.0,52,0.00,,,0.00,meteobridge,2013-09-23 21:40:00,
2013-09-23 17:46:00,60.1,43.0,29.93,North,0,6.0,6.9,53,0.00,,,0.00,meteobridge,2013-09-23 21:46:00,
2013-09-23 17:51:00,59.4,42.3,29.94,North,0,7.6,7.6,53,0.00,,,0.00,meteobridge,2013-09-23 21:51:00,
2013-09-23 17:57:00,59.0,42.4,29.94,West,270,9.2,9.2,54,0.00,,,0.00,meteobridge,2013-09-23 21:57:00,
2013-09-23 18:03:00,58.8,42.3,29.94,NE,45,4.5,6.0,54,0.00,,,0.00,meteobridge,2013-09-23 22:03:00,
2013-09-23 18:08:00,58.6,42.4,29.94,North,0,6.9,6.9,55,0.00,,,0.00,meteobridge,2013-09-23 22:08:00,
2013-09-23 18:14:00,58.5,42.4,29.94,West,270,7.6,7.6,55,0.00,,,0.00,meteobridge,2013-09-23 22:14:00,
2013-09-23 18:20:00,57.7,41.7,29.94,NW,315,3.8,4.5,55,0.00,,,0.00,meteobridge,2013-09-23 22:20:00,
2013-09-23 18:25:00,57.4,42.3,29.95,East,90,1.6,3.1,57,0.00,,,0.00,meteobridge,2013-09-23 22:25:00,
2013-09-23 18:31:00,56.7,42.1,29.95,NW,315,3.1,3.1,58,0.00,,,0.00,meteobridge,2013-09-23 22:31:00,
2013-09-23 18:36:00,56.1,41.9,29.95,West,270,1.6,2.2,59,0.00,,,0.00,meteobridge,2013-09-23 22:36:00,
2013-09-23 18:42:00,55.8,41.7,29.95,West,270,0.7,1.6,59,0.00,,,0.00,meteobridge,2013-09-23 22:42:00,
2013-09-23 18:48:00,55.2,42.4,29.95,West,270,0.0,0.0,62,0.00,,,0.00,meteobridge,2013-09-23 22:48:00,
2013-09-23 18:53:00,54.7,41.9,29.95,North,0,1.6,3.1,62,0.00,,,0.00,meteobridge,2013-09-23 22:53:00,
2013-09-23 18:59:00,54.3,41.5,29.95,West,270,2.2,2.2,62,0.00,,,0.00,meteobridge,2013-09-23 22:59:00,
2013-09-23 19:05:00,54.1,41.9,29.96,South,180,0.0,0.7,63,0.00,,,0.00,meteobridge,2013-09-23 23:05:00,
2013-09-23 19:10:00,53.1,41.2,29.96,North,0,0.0,1.6,64,0.00,,,0.00,meteobridge,2013-09-23 23:10:00,
2013-09-23 19:16:00,52.9,41.0,29.96,NW,315,1.6,1.6,64,0.00,,,0.00,meteobridge,2013-09-23 23:16:00,
2013-09-23 19:22:00,53.1,41.2,29.96,West,270,0.0,0.0,64,0.00,,,0.00,meteobridge,2013-09-23 23:22:00,
2013-09-23 19:27:00,53.1,41.2,29.96,North,0,0.0,2.2,64,0.00,,,0.00,meteobridge,2013-09-23 23:27:00,
2013-09-23 19:33:00,52.7,40.8,29.96,North,0,0.7,0.7,64,0.00,,,0.00,meteobridge,2013-09-23 23:33:00,
2013-09-23 19:39:00,52.3,40.5,29.96,North,0,0.0,0.0,64,0.00,,,0.00,meteobridge,2013-09-23 23:39:00,
2013-09-23 19:44:00,51.8,40.1,29.97,West,270,0.0,0.7,64,0.00,,,0.00,meteobridge,2013-09-23 23:44:00,
2013-09-23 19:50:00,51.3,40.3,29.97,North,0,0.7,0.7,66,0.00,,,0.00,meteobridge,2013-09-23 23:50:00,
2013-09-23 19:55:00,51.4,40.5,29.97,North,0,0.0,0.7,66,0.00,,,0.00,meteobridge,2013-09-23 23:55:00,
2013-09-23 20:01:00,50.9,39.9,29.96,East,90,0.0,0.0,66,0.00,,,0.00,meteobridge,2013-09-24 00:01:00,
2013-09-23 20:07:00,51.4,40.8,29.97,West,270,0.0,0.0,67,0.00,,,0.00,meteobridge,2013-09-24 00:07:00,
2013-09-23 20:12:00,50.5,39.9,29.97,West,270,1.6,1.6,67,0.00,,,0.00,meteobridge,2013-09-24 00:12:00,
2013-09-23 20:18:00,49.6,39.9,29.97,North,0,2.2,2.2,69,0.00,,,0.00,meteobridge,2013-09-24 00:18:00,
2013-09-23 20:24:00,49.3,39.6,29.97,East,90,0.0,2.2,69,0.00,,,0.00,meteobridge,2013-09-24 00:24:00,
2013-09-23 20:29:00,48.7,39.0,29.97,East,90,0.0,0.0,69,0.00,,,0.00,meteobridge,2013-09-24 00:29:00,
2013-09-23 20:35:00,48.9,39.6,29.97,East,90,0.0,0.0,70,0.00,,,0.00,meteobridge,2013-09-24 00:35:00,
2013-09-23 20:41:00,50.0,39.9,29.97,East,90,0.0,2.2,68,0.00,,,0.00,meteobridge,2013-09-24 00:41:00,
2013-09-23 20:46:00,49.8,40.1,29.97,North,0,1.6,1.6,69,0.00,,,0.00,meteobridge,2013-09-24 00:46:00,
2013-09-23 20:52:00,49.6,39.9,29.98,North,0,0.0,0.0,69,0.00,,,0.00,meteobridge,2013-09-24 00:52:00,
2013-09-23 20:57:00,50.0,39.9,29.97,NW,315,2.2,2.2,68,0.00,,,0.00,meteobridge,2013-09-24 00:57:00,
2013-09-23 21:03:00,49.8,39.7,29.97,North,0,6.9,6.9,68,0.00,,,0.00,meteobridge,2013-09-24 01:03:00,
2013-09-23 21:09:00,51.4,40.5,29.97,NW,315,7.6,7.6,66,0.00,,,0.00,meteobridge,2013-09-24 01:09:00,
2013-09-23 21:14:00,51.8,40.1,29.97,North,0,8.3,8.3,64,0.00,,,0.00,meteobridge,2013-09-24 01:14:00,
2013-09-23 21:20:00,52.3,40.5,29.97,NW,315,6.0,8.3,64,0.00,,,0.00,meteobridge,2013-09-24 01:20:00,
2013-09-23 21:26:00,52.2,40.3,29.97,North,0,4.5,6.9,64,0.00,,,0.00,meteobridge,2013-09-24 01:26:00,
2013-09-23 21:31:00,52.0,40.1,29.98,North,0,4.5,4.5,64,0.00,,,0.00,meteobridge,2013-09-24 01:31:00,
2013-09-23 21:37:00,51.8,40.1,29.98,North,0,3.1,4.5,64,0.00,,,0.00,meteobridge,2013-09-24 01:37:00,
2013-09-23 21:43:00,52.0,40.1,29.98,NW,315,4.5,4.5,64,0.00,,,0.00,meteobridge,2013-09-24 01:43:00,
2013-09-23 21:48:00,51.8,40.1,29.98,West,270,6.0,7.6,64,0.00,,,0.00,meteobridge,2013-09-24 01:48:00,
2013-09-23 21:54:00,51.6,40.3,29.98,West,270,3.1,4.5,65,0.00,,,0.00,meteobridge,2013-09-24 01:54:00,
2013-09-23 21:59:00,52.3,40.5,29.99,North,0,7.6,9.2,64,0.00,,,0.00,meteobridge,2013-09-24 01:59:00,
2013-09-23 22:05:00,52.0,40.1,29.99,South,180,9.2,9.2,64,0.00,,,0.00,meteobridge,2013-09-24 02:05:00,
2013-09-23 22:11:00,51.8,40.1,29.99,NW,315,13.6,13.6,64,0.00,,,0.00,meteobridge,2013-09-24 02:11:00,
2013-09-23 22:16:00,51.6,40.3,30.00,NW,315,6.9,6.9,65,0.00,,,0.00,meteobridge,2013-09-24 02:16:00,
2013-09-23 22:22:00,51.8,40.1,30.00,SE,135,9.8,13.6,64,0.00,,,0.00,meteobridge,2013-09-24 02:22:00,
2013-09-23 22:28:00,51.6,40.3,30.00,North,0,9.2,9.2,65,0.00,,,0.00,meteobridge,2013-09-24 02:28:00,
2013-09-23 22:33:00,51.6,40.3,30.00,North,0,7.6,8.3,65,0.00,,,0.00,meteobridge,2013-09-24 02:33:00,
2013-09-23 22:39:00,51.3,39.9,30.00,NW,315,5.4,7.6,65,0.00,,,0.00,meteobridge,2013-09-24 02:39:00,
2013-09-23 22:45:00,51.3,39.9,30.01,North,0,6.9,9.2,65,0.00,,,0.00,meteobridge,2013-09-24 02:45:00,
2013-09-23 22:50:00,51.1,39.7,30.01,North,0,9.8,9.8,65,0.00,,,0.00,meteobridge,2013-09-24 02:50:00,
2013-09-23 22:56:00,51.1,39.7,30.01,NW,315,6.9,8.3,65,0.00,,,0.00,meteobridge,2013-09-24 02:56:00,
2013-09-23 23:02:00,51.1,39.7,30.00,North,0,9.8,9.8,65,0.00,,,0.00,meteobridge,2013-09-24 03:02:00,
2013-09-23 23:07:00,50.5,39.2,30.01,NW,315,9.2,9.2,65,0.00,,,0.00,meteobridge,2013-09-24 03:07:00,
2013-09-23 23:13:00,50.7,39.4,30.01,NW,315,6.9,11.4,65,0.00,,,0.00,meteobridge,2013-09-24 03:13:00,
2013-09-23 23:18:00,50.4,39.0,30.01,West,270,7.6,7.6,65,0.00,,,0.00,meteobridge,2013-09-24 03:18:00,
2013-09-23 23:24:00,50.0,38.7,30.01,North,0,6.0,6.9,65,0.00,,,0.00,meteobridge,2013-09-24 03:24:00,
2013-09-23 23:30:00,49.5,39.0,30.01,West,270,1.6,2.2,67,0.00,,,0.00,meteobridge,2013-09-24 03:30:00,
2013-09-23 23:35:00,49.5,39.0,30.01,West,270,1.6,1.6,67,0.00,,,0.00,meteobridge,2013-09-24 03:35:00,
2013-09-23 23:41:00,49.5,39.0,30.01,NW,315,5.4,6.0,67,0.00,,,0.00,meteobridge,2013-09-24 03:41:00,
2013-09-23 23:47:00,49.5,39.0,30.01,North,0,5.4,6.9,67,0.00,,,0.00,meteobridge,2013-09-24 03:47:00,
2013-09-23 23:52:00,49.3,38.8,30.01,West,270,3.1,3.8,67,0.00,,,0.00,meteobridge,2013-09-24 03:52:00,
2013-09-23 23:58:00,48.9,38.5,30.01,SW,225,3.8,4.5,67,0.00,,,0.00,meteobridge,2013-09-24 03:58:00,